sensor_id;sensor_type;location;lat;lon;timestamp;temperature;humidity
45108;DHT22;30869;51.188;6.556;2022-09-16T00:01:16;14.60;99.90
45108;DHT22;30869;51.188;6.556;2022-09-16T00:03:43;14.50;99.90
45108;DHT22;30869;51.188;6.556;2022-09-16T00:06:18;14.60;99.90
45108;DHT22;30869;51.188;6.556;2022-09-16T00:08:44;14.50;99.90
45108;DHT22;30869;51.188;6.556;2022-09-16T00:11:11;14.50;99.90
45108;DHT22;30869;51.188;6.556;2022-09-16T00:13:37;14.60;99.90
45108;DHT22;30869;51.188;6.556;2022-09-16T00:16:29;14.60;99.90
45108;DHT22;30869;51.188;6.556;2022-09-16T00:19:00;14.60;99.90
45108;DHT22;30869;51.188;6.556;2022-09-16T00:21:27;14.40;99.90
45108;DHT22;30869;51.188;6.556;2022-09-16T00:23:54;14.40;99.90
45108;DHT22;30869;51.188;6.556;2022-09-16T00:26:20;14.50;99.90
45108;DHT22;30869;51.188;6.556;2022-09-16T00:28:48;14.70;99.90
45108;DHT22;30869;51.188;6.556;2022-09-16T00:31:15;14.70;99.90
45108;DHT22;30869;51.188;6.556;2022-09-16T00:33:41;14.70;99.90
45108;DHT22;30869;51.188;6.556;2022-09-16T00:36:16;14.90;99.90
45108;DHT22;30869;51.188;6.556;2022-09-16T00:38:50;14.80;99.90
45108;DHT22;30869;51.188;6.556;2022-09-16T00:41:20;14.90;99.90
45108;DHT22;30869;51.188;6.556;2022-09-16T00:46:38;14.70;99.90
45108;DHT22;30869;51.188;6.556;2022-09-16T00:49:29;14.70;99.90
45108;DHT22;30869;51.188;6.556;2022-09-16T00:52:02;14.80;99.90
45108;DHT22;30869;51.188;6.556;2022-09-16T00:54:31;15.00;99.90
45108;DHT22;30869;51.188;6.556;2022-09-16T00:56:59;14.90;99.90
45108;DHT22;30869;51.188;6.556;2022-09-16T00:59:27;15.00;99.90
45108;DHT22;30869;51.188;6.556;2022-09-16T01:01:55;15.00;99.90
45108;DHT22;30869;51.188;6.556;2022-09-16T01:04:30;15.00;99.90
45108;DHT22;30869;51.188;6.556;2022-09-16T01:07:14;15.10;99.90
45108;DHT22;30869;51.188;6.556;2022-09-16T01:09:40;15.10;99.90
45108;DHT22;30869;51.188;6.556;2022-09-16T01:12:06;15.10;99.90
45108;DHT22;30869;51.188;6.556;2022-09-16T01:14:32;15.00;99.90
45108;DHT22;30869;51.188;6.556;2022-09-16T01:23:18;14.90;99.90
45108;DHT22;30869;51.188;6.556;2022-09-16T01:28:57;15.00;99.90
45108;DHT22;30869;51.188;6.556;2022-09-16T01:31:28;15.00;99.90
45108;DHT22;30869;51.188;6.556;2022-09-16T01:37:38;15.20;99.90
45108;DHT22;30869;51.188;6.556;2022-09-16T01:48:04;14.70;99.90
45108;DHT22;30869;51.188;6.556;2022-09-16T01:50:47;14.80;99.90
45108;DHT22;30869;51.188;6.556;2022-09-16T01:53:31;14.80;99.90
45108;DHT22;30869;51.188;6.556;2022-09-16T01:56:35;14.70;99.90
45108;DHT22;30869;51.188;6.556;2022-09-16T01:59:14;14.50;99.90
45108;DHT22;30869;51.188;6.556;2022-09-16T02:04:24;14.70;99.90
45108;DHT22;30869;51.188;6.556;2022-09-16T02:06:53;15.00;99.90
45108;DHT22;30869;51.188;6.556;2022-09-16T02:09:23;14.90;99.90
45108;DHT22;30869;51.188;6.556;2022-09-16T02:11:56;14.70;99.90
45108;DHT22;30869;51.188;6.556;2022-09-16T02:14:27;14.70;99.90
45108;DHT22;30869;51.188;6.556;2022-09-16T02:20:03;14.90;99.90
45108;DHT22;30869;51.188;6.556;2022-09-16T02:22:42;14.90;99.90
45108;DHT22;30869;51.188;6.556;2022-09-16T02:25:09;14.90;99.90
45108;DHT22;30869;51.188;6.556;2022-09-16T02:27:38;15.00;99.90
45108;DHT22;30869;51.188;6.556;2022-09-16T02:30:08;15.00;99.90
45108;DHT22;30869;51.188;6.556;2022-09-16T02:32:38;15.00;99.90
45108;DHT22;30869;51.188;6.556;2022-09-16T02:35:09;15.00;99.90
45108;DHT22;30869;51.188;6.556;2022-09-16T02:40:12;14.90;99.90
45108;DHT22;30869;51.188;6.556;2022-09-16T02:42:40;14.80;99.90
45108;DHT22;30869;51.188;6.556;2022-09-16T02:45:06;14.90;99.90
45108;DHT22;30869;51.188;6.556;2022-09-16T02:47:57;14.80;99.90
45108;DHT22;30869;51.188;6.556;2022-09-16T02:53:19;14.70;99.90
45108;DHT22;30869;51.188;6.556;2022-09-16T02:55:55;14.80;99.90
45108;DHT22;30869;51.188;6.556;2022-09-16T02:58:23;14.80;99.90
45108;DHT22;30869;51.188;6.556;2022-09-16T03:00:51;14.90;99.90
45108;DHT22;30869;51.188;6.556;2022-09-16T03:03:22;14.90;99.90
45108;DHT22;30869;51.188;6.556;2022-09-16T03:08:35;15.00;99.90
45108;DHT22;30869;51.188;6.556;2022-09-16T03:11:19;15.00;99.90
45108;DHT22;30869;51.188;6.556;2022-09-16T03:19:09;14.80;99.90
45108;DHT22;30869;51.188;6.556;2022-09-16T03:22:06;14.80;99.90
45108;DHT22;30869;51.188;6.556;2022-09-16T03:24:47;14.80;99.90
45108;DHT22;30869;51.188;6.556;2022-09-16T03:27:22;14.70;99.90
45108;DHT22;30869;51.188;6.556;2022-09-16T03:30:03;14.60;99.90
45108;DHT22;30869;51.188;6.556;2022-09-16T03:32:36;14.70;99.90
45108;DHT22;30869;51.188;6.556;2022-09-16T03:35:16;14.60;99.90
45108;DHT22;30869;51.188;6.556;2022-09-16T03:37:45;14.60;99.90
45108;DHT22;30869;51.188;6.556;2022-09-16T03:40:14;14.50;99.90
45108;DHT22;30869;51.188;6.556;2022-09-16T03:43:10;14.80;99.90
45108;DHT22;30869;51.188;6.556;2022-09-16T03:45:37;14.70;99.90
45108;DHT22;30869;51.188;6.556;2022-09-16T03:48:05;14.60;99.90
45108;DHT22;30869;51.188;6.556;2022-09-16T03:50:31;14.50;99.90
45108;DHT22;30869;51.188;6.556;2022-09-16T03:52:57;14.40;99.90
45108;DHT22;30869;51.188;6.556;2022-09-16T03:55:23;14.40;99.90
45108;DHT22;30869;51.188;6.556;2022-09-16T03:57:54;14.60;99.90
45108;DHT22;30869;51.188;6.556;2022-09-16T04:00:23;14.50;99.90
45108;DHT22;30869;51.188;6.556;2022-09-16T04:02:49;14.60;99.90
45108;DHT22;30869;51.188;6.556;2022-09-16T04:05:16;14.60;99.90
45108;DHT22;30869;51.188;6.556;2022-09-16T04:07:42;14.40;99.90
45108;DHT22;30869;51.188;6.556;2022-09-16T04:10:07;14.50;99.90
45108;DHT22;30869;51.188;6.556;2022-09-16T04:12:37;14.50;99.90
45108;DHT22;30869;51.188;6.556;2022-09-16T04:15:07;14.40;99.90
45108;DHT22;30869;51.188;6.556;2022-09-16T04:17:33;14.30;99.90
45108;DHT22;30869;51.188;6.556;2022-09-16T04:20:00;14.40;99.90
45108;DHT22;30869;51.188;6.556;2022-09-16T04:22:28;14.20;99.90
45108;DHT22;30869;51.188;6.556;2022-09-16T04:25:30;14.10;99.90
45108;DHT22;30869;51.188;6.556;2022-09-16T04:27:56;14.10;99.90
45108;DHT22;30869;51.188;6.556;2022-09-16T04:30:35;14.20;99.90
45108;DHT22;30869;51.188;6.556;2022-09-16T04:33:01;14.10;99.90
45108;DHT22;30869;51.188;6.556;2022-09-16T04:35:37;14.30;99.90
45108;DHT22;30869;51.188;6.556;2022-09-16T04:38:04;14.30;99.90
45108;DHT22;30869;51.188;6.556;2022-09-16T04:40:30;14.00;99.90
45108;DHT22;30869;51.188;6.556;2022-09-16T04:42:56;14.00;99.90
45108;DHT22;30869;51.188;6.556;2022-09-16T04:45:24;14.20;99.90
45108;DHT22;30869;51.188;6.556;2022-09-16T04:47:57;14.00;99.90
45108;DHT22;30869;51.188;6.556;2022-09-16T04:50:24;13.80;99.90
45108;DHT22;30869;51.188;6.556;2022-09-16T04:52:51;13.80;99.90
45108;DHT22;30869;51.188;6.556;2022-09-16T04:55:17;13.70;99.90
45108;DHT22;30869;51.188;6.556;2022-09-16T04:57:43;13.90;99.90
45108;DHT22;30869;51.188;6.556;2022-09-16T05:00:10;13.70;99.90
45108;DHT22;30869;51.188;6.556;2022-09-16T05:02:36;13.90;99.90
45108;DHT22;30869;51.188;6.556;2022-09-16T05:05:01;13.90;99.90
45108;DHT22;30869;51.188;6.556;2022-09-16T05:07:28;13.80;99.90
45108;DHT22;30869;51.188;6.556;2022-09-16T05:09:54;13.90;99.90
45108;DHT22;30869;51.188;6.556;2022-09-16T05:12:20;13.70;99.90
45108;DHT22;30869;51.188;6.556;2022-09-16T05:14:46;13.80;99.90
45108;DHT22;30869;51.188;6.556;2022-09-16T05:17:16;14.00;99.90
45108;DHT22;30869;51.188;6.556;2022-09-16T05:19:45;13.80;99.90
45108;DHT22;30869;51.188;6.556;2022-09-16T05:22:11;13.90;99.90
45108;DHT22;30869;51.188;6.556;2022-09-16T05:24:37;14.00;99.90
45108;DHT22;30869;51.188;6.556;2022-09-16T05:27:03;14.00;99.90
45108;DHT22;30869;51.188;6.556;2022-09-16T05:29:29;14.00;99.90
45108;DHT22;30869;51.188;6.556;2022-09-16T05:31:54;13.90;99.90
45108;DHT22;30869;51.188;6.556;2022-09-16T05:34:21;13.90;99.90
45108;DHT22;30869;51.188;6.556;2022-09-16T05:36:49;14.10;99.90
45108;DHT22;30869;51.188;6.556;2022-09-16T05:39:16;14.20;99.90
45108;DHT22;30869;51.188;6.556;2022-09-16T05:41:45;13.80;99.90
45108;DHT22;30869;51.188;6.556;2022-09-16T05:44:11;13.80;99.90
45108;DHT22;30869;51.188;6.556;2022-09-16T05:46:37;13.50;99.90
45108;DHT22;30869;51.188;6.556;2022-09-16T05:49:06;13.40;99.90
45108;DHT22;30869;51.188;6.556;2022-09-16T05:51:32;13.50;99.90
45108;DHT22;30869;51.188;6.556;2022-09-16T05:53:58;13.30;99.90
45108;DHT22;30869;51.188;6.556;2022-09-16T05:56:26;13.20;99.90
45108;DHT22;30869;51.188;6.556;2022-09-16T05:58:54;13.40;99.90
45108;DHT22;30869;51.188;6.556;2022-09-16T06:01:23;13.40;99.90
45108;DHT22;30869;51.188;6.556;2022-09-16T06:03:50;13.30;99.90
45108;DHT22;30869;51.188;6.556;2022-09-16T06:08:55;13.40;99.90
45108;DHT22;30869;51.188;6.556;2022-09-16T06:11:22;13.50;99.90
45108;DHT22;30869;51.188;6.556;2022-09-16T06:13:52;13.40;99.90
45108;DHT22;30869;51.188;6.556;2022-09-16T06:16:20;13.40;99.90
45108;DHT22;30869;51.188;6.556;2022-09-16T06:18:46;13.60;99.90
45108;DHT22;30869;51.188;6.556;2022-09-16T06:21:12;13.60;99.90
45108;DHT22;30869;51.188;6.556;2022-09-16T06:23:38;13.40;99.90
45108;DHT22;30869;51.188;6.556;2022-09-16T06:26:07;13.40;99.90
45108;DHT22;30869;51.188;6.556;2022-09-16T06:28:34;13.60;99.90
45108;DHT22;30869;51.188;6.556;2022-09-16T06:31:05;13.40;99.90
45108;DHT22;30869;51.188;6.556;2022-09-16T06:33:32;13.40;99.90
45108;DHT22;30869;51.188;6.556;2022-09-16T06:36:02;13.50;99.90
45108;DHT22;30869;51.188;6.556;2022-09-16T06:38:28;13.40;99.90
45108;DHT22;30869;51.188;6.556;2022-09-16T06:40:57;13.50;99.90
45108;DHT22;30869;51.188;6.556;2022-09-16T06:43:24;13.40;99.90
45108;DHT22;30869;51.188;6.556;2022-09-16T06:45:50;13.30;99.90
45108;DHT22;30869;51.188;6.556;2022-09-16T06:48:15;13.40;99.90
45108;DHT22;30869;51.188;6.556;2022-09-16T06:50:41;13.60;99.90
45108;DHT22;30869;51.188;6.556;2022-09-16T06:53:07;13.50;99.90
45108;DHT22;30869;51.188;6.556;2022-09-16T06:55:33;13.40;99.90
45108;DHT22;30869;51.188;6.556;2022-09-16T06:57:59;13.50;99.90
45108;DHT22;30869;51.188;6.556;2022-09-16T07:00:25;13.50;99.90
45108;DHT22;30869;51.188;6.556;2022-09-16T07:02:51;13.50;99.90
45108;DHT22;30869;51.188;6.556;2022-09-16T07:05:16;13.60;99.90
45108;DHT22;30869;51.188;6.556;2022-09-16T07:07:42;13.50;99.90
45108;DHT22;30869;51.188;6.556;2022-09-16T07:10:08;13.40;99.90
45108;DHT22;30869;51.188;6.556;2022-09-16T07:12:34;13.50;99.90
45108;DHT22;30869;51.188;6.556;2022-09-16T07:15:00;13.50;99.90
45108;DHT22;30869;51.188;6.556;2022-09-16T07:17:26;13.70;99.90
45108;DHT22;30869;51.188;6.556;2022-09-16T07:19:53;13.60;99.90
45108;DHT22;30869;51.188;6.556;2022-09-16T07:22:18;13.80;99.90
45108;DHT22;30869;51.188;6.556;2022-09-16T07:24:45;14.20;99.90
45108;DHT22;30869;51.188;6.556;2022-09-16T07:27:11;14.30;99.90
45108;DHT22;30869;51.188;6.556;2022-09-16T07:29:38;14.60;99.90
45108;DHT22;30869;51.188;6.556;2022-09-16T07:32:04;14.90;99.90
45108;DHT22;30869;51.188;6.556;2022-09-16T07:34:29;15.40;99.90
45108;DHT22;30869;51.188;6.556;2022-09-16T07:36:55;15.40;99.90
45108;DHT22;30869;51.188;6.556;2022-09-16T07:39:21;15.50;99.90
45108;DHT22;30869;51.188;6.556;2022-09-16T07:41:47;15.60;99.90
45108;DHT22;30869;51.188;6.556;2022-09-16T07:44:14;15.50;99.90
45108;DHT22;30869;51.188;6.556;2022-09-16T07:46:41;15.40;99.90
45108;DHT22;30869;51.188;6.556;2022-09-16T07:49:09;15.30;99.90
45108;DHT22;30869;51.188;6.556;2022-09-16T07:51:35;15.50;99.90
45108;DHT22;30869;51.188;6.556;2022-09-16T07:54:04;15.30;99.90
45108;DHT22;30869;51.188;6.556;2022-09-16T07:56:33;15.20;99.90
45108;DHT22;30869;51.188;6.556;2022-09-16T07:59:00;15.20;99.90
45108;DHT22;30869;51.188;6.556;2022-09-16T08:01:27;15.10;99.90
45108;DHT22;30869;51.188;6.556;2022-09-16T08:03:54;15.00;99.90
45108;DHT22;30869;51.188;6.556;2022-09-16T08:06:25;15.10;99.90
45108;DHT22;30869;51.188;6.556;2022-09-16T08:08:52;15.60;99.90
45108;DHT22;30869;51.188;6.556;2022-09-16T08:11:18;15.70;99.90
45108;DHT22;30869;51.188;6.556;2022-09-16T08:13:44;15.80;99.90
45108;DHT22;30869;51.188;6.556;2022-09-16T08:18:37;16.00;99.90
45108;DHT22;30869;51.188;6.556;2022-09-16T08:21:08;16.20;99.90
45108;DHT22;30869;51.188;6.556;2022-09-16T08:23:35;16.30;99.90
45108;DHT22;30869;51.188;6.556;2022-09-16T08:26:01;16.20;99.90
45108;DHT22;30869;51.188;6.556;2022-09-16T08:28:28;16.20;99.90
45108;DHT22;30869;51.188;6.556;2022-09-16T08:30:54;16.20;99.90
45108;DHT22;30869;51.188;6.556;2022-09-16T08:33:20;16.40;99.90
45108;DHT22;30869;51.188;6.556;2022-09-16T08:36:00;16.30;99.90
45108;DHT22;30869;51.188;6.556;2022-09-16T08:38:27;16.00;99.90
45108;DHT22;30869;51.188;6.556;2022-09-16T08:44:31;15.50;99.90
45108;DHT22;30869;51.188;6.556;2022-09-16T08:47:00;15.40;99.90
45108;DHT22;30869;51.188;6.556;2022-09-16T08:51:57;15.60;99.90
45108;DHT22;30869;51.188;6.556;2022-09-16T08:54:35;15.60;99.90
45108;DHT22;30869;51.188;6.556;2022-09-16T08:57:04;16.20;99.90
45108;DHT22;30869;51.188;6.556;2022-09-16T08:59:34;16.20;99.90
45108;DHT22;30869;51.188;6.556;2022-09-16T09:02:06;16.20;99.90
45108;DHT22;30869;51.188;6.556;2022-09-16T09:04:35;16.20;99.90
45108;DHT22;30869;51.188;6.556;2022-09-16T09:07:24;16.30;99.90
45108;DHT22;30869;51.188;6.556;2022-09-16T09:10:15;16.40;99.90
45108;DHT22;30869;51.188;6.556;2022-09-16T09:12:58;16.30;99.90
45108;DHT22;30869;51.188;6.556;2022-09-16T09:15:42;16.10;99.90
45108;DHT22;30869;51.188;6.556;2022-09-16T09:18:15;15.90;99.90
45108;DHT22;30869;51.188;6.556;2022-09-16T09:20:58;15.70;99.90
45108;DHT22;30869;51.188;6.556;2022-09-16T09:26:12;15.80;99.90
45108;DHT22;30869;51.188;6.556;2022-09-16T09:31:26;15.90;99.90
45108;DHT22;30869;51.188;6.556;2022-09-16T09:34:23;16.00;99.90
45108;DHT22;30869;51.188;6.556;2022-09-16T09:37:23;16.00;99.90
45108;DHT22;30869;51.188;6.556;2022-09-16T09:40:14;15.90;99.90
45108;DHT22;30869;51.188;6.556;2022-09-16T09:45:36;15.80;99.90
45108;DHT22;30869;51.188;6.556;2022-09-16T09:50:45;15.80;99.90
45108;DHT22;30869;51.188;6.556;2022-09-16T09:56:03;15.80;99.90
45108;DHT22;30869;51.188;6.556;2022-09-16T09:58:43;15.80;99.90
45108;DHT22;30869;51.188;6.556;2022-09-16T10:01:11;15.80;99.90
45108;DHT22;30869;51.188;6.556;2022-09-16T10:03:38;15.80;99.90
45108;DHT22;30869;51.188;6.556;2022-09-16T10:06:05;15.90;99.90
45108;DHT22;30869;51.188;6.556;2022-09-16T10:08:48;15.90;99.90
45108;DHT22;30869;51.188;6.556;2022-09-16T10:11:27;15.90;99.90
45108;DHT22;30869;51.188;6.556;2022-09-16T10:13:55;15.80;99.90
45108;DHT22;30869;51.188;6.556;2022-09-16T10:16:28;15.80;99.90
45108;DHT22;30869;51.188;6.556;2022-09-16T10:19:05;15.90;99.90
45108;DHT22;30869;51.188;6.556;2022-09-16T10:21:42;16.00;99.90
45108;DHT22;30869;51.188;6.556;2022-09-16T10:24:33;15.90;99.90
45108;DHT22;30869;51.188;6.556;2022-09-16T10:27:01;16.00;99.90
45108;DHT22;30869;51.188;6.556;2022-09-16T10:29:27;16.00;99.90
45108;DHT22;30869;51.188;6.556;2022-09-16T10:31:53;16.00;99.90
45108;DHT22;30869;51.188;6.556;2022-09-16T10:34:23;15.90;99.90
45108;DHT22;30869;51.188;6.556;2022-09-16T10:36:59;15.90;99.90
45108;DHT22;30869;51.188;6.556;2022-09-16T10:39:26;16.00;99.90
45108;DHT22;30869;51.188;6.556;2022-09-16T10:41:53;16.20;99.90
45108;DHT22;30869;51.188;6.556;2022-09-16T10:44:28;16.10;99.90
45108;DHT22;30869;51.188;6.556;2022-09-16T10:46:57;16.10;99.90
45108;DHT22;30869;51.188;6.556;2022-09-16T10:49:39;16.10;99.90
45108;DHT22;30869;51.188;6.556;2022-09-16T10:52:21;16.10;99.90
45108;DHT22;30869;51.188;6.556;2022-09-16T10:54:47;16.20;99.90
45108;DHT22;30869;51.188;6.556;2022-09-16T10:57:32;16.30;99.90
45108;DHT22;30869;51.188;6.556;2022-09-16T11:00:46;16.30;99.90
45108;DHT22;30869;51.188;6.556;2022-09-16T11:03:34;16.30;99.90
45108;DHT22;30869;51.188;6.556;2022-09-16T11:14:01;16.20;99.90
45108;DHT22;30869;51.188;6.556;2022-09-16T11:24:42;16.20;99.90
45108;DHT22;30869;51.188;6.556;2022-09-16T11:30:13;16.00;99.90
45108;DHT22;30869;51.188;6.556;2022-09-16T11:32:55;15.80;99.90
45108;DHT22;30869;51.188;6.556;2022-09-16T11:41:02;14.80;99.90
45108;DHT22;30869;51.188;6.556;2022-09-16T11:46:05;14.50;99.90
45108;DHT22;30869;51.188;6.556;2022-09-16T11:48:40;14.70;99.90
45108;DHT22;30869;51.188;6.556;2022-09-16T11:51:40;14.60;99.90
45108;DHT22;30869;51.188;6.556;2022-09-16T11:57:12;14.50;99.90
45108;DHT22;30869;51.188;6.556;2022-09-16T12:02:33;14.20;99.90
45108;DHT22;30869;51.188;6.556;2022-09-16T12:13:19;14.70;99.90
45108;DHT22;30869;51.188;6.556;2022-09-16T12:15:54;14.80;99.90
45108;DHT22;30869;51.188;6.556;2022-09-16T12:18:27;14.80;99.90
45108;DHT22;30869;51.188;6.556;2022-09-16T12:21:07;14.90;99.90
45108;DHT22;30869;51.188;6.556;2022-09-16T12:23:38;15.00;99.90
45108;DHT22;30869;51.188;6.556;2022-09-16T12:26:10;14.80;99.90
45108;DHT22;30869;51.188;6.556;2022-09-16T12:28:58;15.00;99.90
45108;DHT22;30869;51.188;6.556;2022-09-16T12:31:39;14.90;99.90
45108;DHT22;30869;51.188;6.556;2022-09-16T12:34:20;14.80;99.90
45108;DHT22;30869;51.188;6.556;2022-09-16T12:36:53;14.70;99.90
45108;DHT22;30869;51.188;6.556;2022-09-16T12:39:22;14.60;99.90
45108;DHT22;30869;51.188;6.556;2022-09-16T12:42:29;14.50;99.90
45108;DHT22;30869;51.188;6.556;2022-09-16T12:48:00;14.10;99.90
45108;DHT22;30869;51.188;6.556;2022-09-16T12:50:47;14.10;99.90
45108;DHT22;30869;51.188;6.556;2022-09-16T13:01:25;14.40;99.90
45108;DHT22;30869;51.188;6.556;2022-09-16T13:06:47;14.40;99.90
45108;DHT22;30869;51.188;6.556;2022-09-16T13:09:25;14.40;99.90
45108;DHT22;30869;51.188;6.556;2022-09-16T13:12:01;14.50;99.90
45108;DHT22;30869;51.188;6.556;2022-09-16T13:17:10;14.50;99.90
45108;DHT22;30869;51.188;6.556;2022-09-16T13:19:52;14.60;99.90
45108;DHT22;30869;51.188;6.556;2022-09-16T13:22:31;14.40;99.90
45108;DHT22;30869;51.188;6.556;2022-09-16T13:27:34;14.40;99.90
45108;DHT22;30869;51.188;6.556;2022-09-16T13:30:31;14.60;99.90
45108;DHT22;30869;51.188;6.556;2022-09-16T13:32:58;14.50;99.90
45108;DHT22;30869;51.188;6.556;2022-09-16T13:37:57;14.50;99.90
45108;DHT22;30869;51.188;6.556;2022-09-16T13:40:29;14.70;99.90
45108;DHT22;30869;51.188;6.556;2022-09-16T13:45:38;14.50;99.90
45108;DHT22;30869;51.188;6.556;2022-09-16T13:48:15;14.80;99.90
45108;DHT22;30869;51.188;6.556;2022-09-16T13:50:52;14.80;99.90
45108;DHT22;30869;51.188;6.556;2022-09-16T13:53:32;14.60;99.90
45108;DHT22;30869;51.188;6.556;2022-09-16T13:56:07;14.60;99.90
45108;DHT22;30869;51.188;6.556;2022-09-16T13:58:37;14.50;99.90
45108;DHT22;30869;51.188;6.556;2022-09-16T14:06:38;14.20;99.90
45108;DHT22;30869;51.188;6.556;2022-09-16T14:14:58;14.00;99.90
45108;DHT22;30869;51.188;6.556;2022-09-16T14:17:41;14.10;99.90
45108;DHT22;30869;51.188;6.556;2022-09-16T14:20:14;14.30;99.90
45108;DHT22;30869;51.188;6.556;2022-09-16T14:22:41;14.50;99.90
45108;DHT22;30869;51.188;6.556;2022-09-16T14:25:33;14.60;99.90
45108;DHT22;30869;51.188;6.556;2022-09-16T14:28:19;14.60;99.90
45108;DHT22;30869;51.188;6.556;2022-09-16T14:30:57;14.80;99.90
45108;DHT22;30869;51.188;6.556;2022-09-16T14:33:35;15.00;99.90
45108;DHT22;30869;51.188;6.556;2022-09-16T14:36:12;15.00;99.90
45108;DHT22;30869;51.188;6.556;2022-09-16T14:41:25;15.00;99.90
45108;DHT22;30869;51.188;6.556;2022-09-16T14:43:53;14.90;99.90
45108;DHT22;30869;51.188;6.556;2022-09-16T14:46:21;15.00;99.90
45108;DHT22;30869;51.188;6.556;2022-09-16T14:48:48;14.90;99.90
45108;DHT22;30869;51.188;6.556;2022-09-16T14:51:23;14.90;99.90
45108;DHT22;30869;51.188;6.556;2022-09-16T14:53:56;14.60;99.90
45108;DHT22;30869;51.188;6.556;2022-09-16T14:56:22;14.50;99.90
45108;DHT22;30869;51.188;6.556;2022-09-16T14:58:48;14.40;99.90
45108;DHT22;30869;51.188;6.556;2022-09-16T15:01:26;14.40;99.90
45108;DHT22;30869;51.188;6.556;2022-09-16T15:04:03;14.50;99.90
45108;DHT22;30869;51.188;6.556;2022-09-16T15:06:38;14.40;99.90
45108;DHT22;30869;51.188;6.556;2022-09-16T15:09:15;14.10;99.90
45108;DHT22;30869;51.188;6.556;2022-09-16T15:11:55;13.90;99.90
45108;DHT22;30869;51.188;6.556;2022-09-16T15:14:22;14.10;99.90
45108;DHT22;30869;51.188;6.556;2022-09-16T15:17:00;14.20;99.90
45108;DHT22;30869;51.188;6.556;2022-09-16T15:19:34;14.40;99.90
45108;DHT22;30869;51.188;6.556;2022-09-16T15:22:00;14.60;99.90
45108;DHT22;30869;51.188;6.556;2022-09-16T15:24:29;14.60;99.90
45108;DHT22;30869;51.188;6.556;2022-09-16T15:26:56;14.80;99.90
45108;DHT22;30869;51.188;6.556;2022-09-16T15:31:49;14.70;99.90
45108;DHT22;30869;51.188;6.556;2022-09-16T15:34:22;14.70;99.90
45108;DHT22;30869;51.188;6.556;2022-09-16T15:36:53;14.50;99.90
45108;DHT22;30869;51.188;6.556;2022-09-16T15:39:37;14.50;99.90
45108;DHT22;30869;51.188;6.556;2022-09-16T15:42:20;14.60;99.90
45108;DHT22;30869;51.188;6.556;2022-09-16T15:44:59;14.50;99.90
45108;DHT22;30869;51.188;6.556;2022-09-16T15:47:31;14.50;99.90
45108;DHT22;30869;51.188;6.556;2022-09-16T15:50:10;14.60;99.90
45108;DHT22;30869;51.188;6.556;2022-09-16T15:53:15;14.60;99.90
45108;DHT22;30869;51.188;6.556;2022-09-16T15:55:53;14.70;99.90
45108;DHT22;30869;51.188;6.556;2022-09-16T15:58:32;14.60;99.90
45108;DHT22;30869;51.188;6.556;2022-09-16T16:04:00;14.60;99.90
45108;DHT22;30869;51.188;6.556;2022-09-16T16:06:47;14.70;99.90
45108;DHT22;30869;51.188;6.556;2022-09-16T16:12:07;14.70;99.90
45108;DHT22;30869;51.188;6.556;2022-09-16T16:14:33;14.80;99.90
45108;DHT22;30869;51.188;6.556;2022-09-16T16:17:05;14.80;99.90
45108;DHT22;30869;51.188;6.556;2022-09-16T16:19:31;14.80;99.90
45108;DHT22;30869;51.188;6.556;2022-09-16T16:21:57;14.70;99.90
45108;DHT22;30869;51.188;6.556;2022-09-16T16:24:23;14.70;99.90
45108;DHT22;30869;51.188;6.556;2022-09-16T16:26:49;14.50;99.90
45108;DHT22;30869;51.188;6.556;2022-09-16T16:29:15;14.30;99.90
45108;DHT22;30869;51.188;6.556;2022-09-16T16:32:08;14.30;99.90
45108;DHT22;30869;51.188;6.556;2022-09-16T16:34:39;14.30;99.90
45108;DHT22;30869;51.188;6.556;2022-09-16T16:37:06;14.40;99.90
45108;DHT22;30869;51.188;6.556;2022-09-16T16:39:33;14.30;99.90
45108;DHT22;30869;51.188;6.556;2022-09-16T16:41:59;14.40;99.90
45108;DHT22;30869;51.188;6.556;2022-09-16T16:44:25;14.40;99.90
45108;DHT22;30869;51.188;6.556;2022-09-16T16:46:52;14.30;99.90
45108;DHT22;30869;51.188;6.556;2022-09-16T16:49:18;14.20;99.90
45108;DHT22;30869;51.188;6.556;2022-09-16T16:51:46;14.10;99.90
45108;DHT22;30869;51.188;6.556;2022-09-16T16:54:12;14.00;99.90
45108;DHT22;30869;51.188;6.556;2022-09-16T16:56:38;14.10;99.90
45108;DHT22;30869;51.188;6.556;2022-09-16T16:59:07;14.00;99.90
45108;DHT22;30869;51.188;6.556;2022-09-16T17:01:33;14.00;99.90
45108;DHT22;30869;51.188;6.556;2022-09-16T17:04:00;14.10;99.90
45108;DHT22;30869;51.188;6.556;2022-09-16T17:06:27;14.00;99.90
45108;DHT22;30869;51.188;6.556;2022-09-16T17:08:54;14.10;99.90
45108;DHT22;30869;51.188;6.556;2022-09-16T17:11:20;13.90;99.90
45108;DHT22;30869;51.188;6.556;2022-09-16T17:13:48;13.90;99.90
45108;DHT22;30869;51.188;6.556;2022-09-16T17:16:17;13.90;99.90
45108;DHT22;30869;51.188;6.556;2022-09-16T17:18:44;13.90;99.90
45108;DHT22;30869;51.188;6.556;2022-09-16T17:21:13;13.80;99.90
45108;DHT22;30869;51.188;6.556;2022-09-16T17:23:40;13.80;99.90
45108;DHT22;30869;51.188;6.556;2022-09-16T17:26:06;13.60;99.90
45108;DHT22;30869;51.188;6.556;2022-09-16T17:28:34;13.60;99.90
45108;DHT22;30869;51.188;6.556;2022-09-16T17:31:00;13.50;99.90
45108;DHT22;30869;51.188;6.556;2022-09-16T17:33:26;13.50;99.90
45108;DHT22;30869;51.188;6.556;2022-09-16T17:36:06;13.50;99.90
45108;DHT22;30869;51.188;6.556;2022-09-16T17:38:32;13.50;99.90
45108;DHT22;30869;51.188;6.556;2022-09-16T17:44:05;13.30;99.90
45108;DHT22;30869;51.188;6.556;2022-09-16T17:46:31;13.40;99.90
45108;DHT22;30869;51.188;6.556;2022-09-16T17:49:02;13.30;99.90
45108;DHT22;30869;51.188;6.556;2022-09-16T17:51:28;13.20;99.90
45108;DHT22;30869;51.188;6.556;2022-09-16T17:53:54;13.30;99.90
45108;DHT22;30869;51.188;6.556;2022-09-16T17:56:20;13.20;99.90
45108;DHT22;30869;51.188;6.556;2022-09-16T17:58:47;13.30;99.90
45108;DHT22;30869;51.188;6.556;2022-09-16T18:01:23;13.30;99.90
45108;DHT22;30869;51.188;6.556;2022-09-16T18:03:50;13.30;99.90
45108;DHT22;30869;51.188;6.556;2022-09-16T18:06:17;13.50;99.90
45108;DHT22;30869;51.188;6.556;2022-09-16T18:08:43;13.30;99.90
45108;DHT22;30869;51.188;6.556;2022-09-16T18:11:11;13.30;99.90
45108;DHT22;30869;51.188;6.556;2022-09-16T18:13:37;13.20;99.90
45108;DHT22;30869;51.188;6.556;2022-09-16T18:16:12;13.10;99.90
45108;DHT22;30869;51.188;6.556;2022-09-16T18:18:39;13.00;99.90
45108;DHT22;30869;51.188;6.556;2022-09-16T18:21:07;12.90;99.90
45108;DHT22;30869;51.188;6.556;2022-09-16T18:23:33;12.90;99.90
45108;DHT22;30869;51.188;6.556;2022-09-16T18:26:07;12.90;99.90
45108;DHT22;30869;51.188;6.556;2022-09-16T18:28:38;12.90;99.90
45108;DHT22;30869;51.188;6.556;2022-09-16T18:31:06;13.20;99.90
45108;DHT22;30869;51.188;6.556;2022-09-16T18:33:32;13.10;99.90
45108;DHT22;30869;51.188;6.556;2022-09-16T18:36:00;13.00;99.90